sensor_id;sensor_type;location;lat;lon;timestamp;temperature;humidity
18729;DHT22;9493;51.884;5.188;2022-08-11T00:02:29;19.90;99.90
18729;DHT22;9493;51.884;5.188;2022-08-11T00:05:03;19.90;99.90
18729;DHT22;9493;51.884;5.188;2022-08-11T00:07:31;19.90;99.90
18729;DHT22;9493;51.884;5.188;2022-08-11T00:09:59;19.90;99.90
18729;DHT22;9493;51.884;5.188;2022-08-11T00:12:28;19.90;99.90
18729;DHT22;9493;51.884;5.188;2022-08-11T00:14:58;19.90;99.90
18729;DHT22;9493;51.884;5.188;2022-08-11T00:17:27;19.80;99.90
18729;DHT22;9493;51.884;5.188;2022-08-11T00:20:02;19.80;99.90
18729;DHT22;9493;51.884;5.188;2022-08-11T00:22:29;19.80;99.90
18729;DHT22;9493;51.884;5.188;2022-08-11T00:24:57;19.70;99.90
18729;DHT22;9493;51.884;5.188;2022-08-11T00:27:35;19.70;99.90
18729;DHT22;9493;51.884;5.188;2022-08-11T00:30:03;19.70;99.90
18729;DHT22;9493;51.884;5.188;2022-08-11T00:32:31;19.70;99.90
18729;DHT22;9493;51.884;5.188;2022-08-11T00:34:59;19.70;99.90
18729;DHT22;9493;51.884;5.188;2022-08-11T00:37:29;19.60;99.90
18729;DHT22;9493;51.884;5.188;2022-08-11T00:39:56;19.60;99.90
18729;DHT22;9493;51.884;5.188;2022-08-11T00:42:29;19.50;99.90
18729;DHT22;9493;51.884;5.188;2022-08-11T00:45:11;19.50;99.90
18729;DHT22;9493;51.884;5.188;2022-08-11T00:47:49;19.50;99.90
18729;DHT22;9493;51.884;5.188;2022-08-11T00:50:26;19.50;99.90
18729;DHT22;9493;51.884;5.188;2022-08-11T00:53:31;19.40;99.90
18729;DHT22;9493;51.884;5.188;2022-08-11T00:56:20;19.40;99.90
18729;DHT22;9493;51.884;5.188;2022-08-11T00:59:29;19.40;99.90
18729;DHT22;9493;51.884;5.188;2022-08-11T01:02:13;19.40;99.90
18729;DHT22;9493;51.884;5.188;2022-08-11T01:05:06;19.40;99.90
18729;DHT22;9493;51.884;5.188;2022-08-11T01:14:07;19.30;99.90
18729;DHT22;9493;51.884;5.188;2022-08-11T01:17:04;19.30;99.90
18729;DHT22;9493;51.884;5.188;2022-08-11T01:19:55;19.40;99.90
18729;DHT22;9493;51.884;5.188;2022-08-11T01:23:02;19.20;99.90
18729;DHT22;9493;51.884;5.188;2022-08-11T01:28:57;19.20;99.90
18729;DHT22;9493;51.884;5.188;2022-08-11T01:31:45;19.20;99.90
18729;DHT22;9493;51.884;5.188;2022-08-11T01:40:29;19.20;99.90
18729;DHT22;9493;51.884;5.188;2022-08-11T01:46:23;19.20;99.90
18729;DHT22;9493;51.884;5.188;2022-08-11T01:49:04;19.10;99.90
18729;DHT22;9493;51.884;5.188;2022-08-11T01:51:45;19.20;99.90
18729;DHT22;9493;51.884;5.188;2022-08-11T01:54:23;19.10;99.90
18729;DHT22;9493;51.884;5.188;2022-08-11T01:57:01;19.10;99.90
18729;DHT22;9493;51.884;5.188;2022-08-11T01:59:35;19.00;99.90
18729;DHT22;9493;51.884;5.188;2022-08-11T02:02:25;19.00;99.90
18729;DHT22;9493;51.884;5.188;2022-08-11T02:05:16;19.00;99.90
18729;DHT22;9493;51.884;5.188;2022-08-11T02:07:54;18.90;99.90
18729;DHT22;9493;51.884;5.188;2022-08-11T02:10:29;18.90;99.90
18729;DHT22;9493;51.884;5.188;2022-08-11T02:13:21;18.90;99.90
18729;DHT22;9493;51.884;5.188;2022-08-11T02:15:55;18.90;99.90
18729;DHT22;9493;51.884;5.188;2022-08-11T02:18:34;18.90;99.90
18729;DHT22;9493;51.884;5.188;2022-08-11T02:21:20;18.80;99.90
18729;DHT22;9493;51.884;5.188;2022-08-11T02:24:13;18.80;99.90
18729;DHT22;9493;51.884;5.188;2022-08-11T02:26:47;18.70;99.90
18729;DHT22;9493;51.884;5.188;2022-08-11T02:29:19;18.80;99.90
18729;DHT22;9493;51.884;5.188;2022-08-11T02:31:58;18.70;99.90
18729;DHT22;9493;51.884;5.188;2022-08-11T02:34:54;18.70;99.90
18729;DHT22;9493;51.884;5.188;2022-08-11T02:37:27;18.60;99.90
18729;DHT22;9493;51.884;5.188;2022-08-11T02:40:15;18.60;99.90
18729;DHT22;9493;51.884;5.188;2022-08-11T02:45:53;18.60;99.90
18729;DHT22;9493;51.884;5.188;2022-08-11T02:48:35;18.60;99.90
18729;DHT22;9493;51.884;5.188;2022-08-11T02:51:29;18.50;99.90
18729;DHT22;9493;51.884;5.188;2022-08-11T02:54:06;18.50;99.90
18729;DHT22;9493;51.884;5.188;2022-08-11T02:56:43;18.50;99.90
18729;DHT22;9493;51.884;5.188;2022-08-11T02:59:24;18.50;99.90
18729;DHT22;9493;51.884;5.188;2022-08-11T03:02:15;18.40;99.90
18729;DHT22;9493;51.884;5.188;2022-08-11T03:04:58;18.40;99.90
18729;DHT22;9493;51.884;5.188;2022-08-11T03:07:31;18.40;99.90
18729;DHT22;9493;51.884;5.188;2022-08-11T03:10:05;18.40;99.90
18729;DHT22;9493;51.884;5.188;2022-08-11T03:12:41;18.30;99.90
18729;DHT22;9493;51.884;5.188;2022-08-11T03:15:45;18.20;99.90
18729;DHT22;9493;51.884;5.188;2022-08-11T03:18:36;18.20;99.90
18729;DHT22;9493;51.884;5.188;2022-08-11T03:21:08;18.10;99.90
18729;DHT22;9493;51.884;5.188;2022-08-11T03:23:40;18.20;99.90
18729;DHT22;9493;51.884;5.188;2022-08-11T03:26:17;18.10;99.90
18729;DHT22;9493;51.884;5.188;2022-08-11T03:28:55;18.00;99.90
18729;DHT22;9493;51.884;5.188;2022-08-11T03:31:31;18.00;99.90
18729;DHT22;9493;51.884;5.188;2022-08-11T03:34:03;18.00;99.90
18729;DHT22;9493;51.884;5.188;2022-08-11T03:39:44;18.00;99.90
18729;DHT22;9493;51.884;5.188;2022-08-11T03:42:19;18.00;99.90
18729;DHT22;9493;51.884;5.188;2022-08-11T03:45:00;17.90;99.90
18729;DHT22;9493;51.884;5.188;2022-08-11T03:47:49;17.90;99.90
18729;DHT22;9493;51.884;5.188;2022-08-11T03:50:28;17.90;99.90
18729;DHT22;9493;51.884;5.188;2022-08-11T03:53:08;17.80;99.90
18729;DHT22;9493;51.884;5.188;2022-08-11T03:55:55;17.80;99.90
18729;DHT22;9493;51.884;5.188;2022-08-11T03:58:48;17.80;99.90
18729;DHT22;9493;51.884;5.188;2022-08-11T04:01:55;17.80;99.90
18729;DHT22;9493;51.884;5.188;2022-08-11T04:04:57;17.70;99.90
18729;DHT22;9493;51.884;5.188;2022-08-11T04:17:17;17.60;99.90
18729;DHT22;9493;51.884;5.188;2022-08-11T04:23:26;17.50;99.90
18729;DHT22;9493;51.884;5.188;2022-08-11T04:26:29;17.60;99.90
18729;DHT22;9493;51.884;5.188;2022-08-11T04:29:20;17.50;99.90
18729;DHT22;9493;51.884;5.188;2022-08-11T04:32:03;17.50;99.90
18729;DHT22;9493;51.884;5.188;2022-08-11T04:34:48;17.40;99.90
18729;DHT22;9493;51.884;5.188;2022-08-11T04:37:40;17.40;99.90
18729;DHT22;9493;51.884;5.188;2022-08-11T04:40:34;17.40;99.90
18729;DHT22;9493;51.884;5.188;2022-08-11T04:43:35;17.30;99.90
18729;DHT22;9493;51.884;5.188;2022-08-11T04:46:26;17.40;99.90
18729;DHT22;9493;51.884;5.188;2022-08-11T04:49:18;17.40;99.90
18729;DHT22;9493;51.884;5.188;2022-08-11T04:52:27;17.40;99.90
18729;DHT22;9493;51.884;5.188;2022-08-11T04:55:35;17.50;99.90
18729;DHT22;9493;51.884;5.188;2022-08-11T04:58:37;17.40;99.90
18729;DHT22;9493;51.884;5.188;2022-08-11T05:01:49;17.50;99.90
18729;DHT22;9493;51.884;5.188;2022-08-11T05:04:38;17.50;99.90
18729;DHT22;9493;51.884;5.188;2022-08-11T05:10:47;17.50;99.90
18729;DHT22;9493;51.884;5.188;2022-08-11T05:13:28;17.50;99.90
18729;DHT22;9493;51.884;5.188;2022-08-11T05:16:16;17.60;99.90
18729;DHT22;9493;51.884;5.188;2022-08-11T05:19:02;17.60;99.90
18729;DHT22;9493;51.884;5.188;2022-08-11T05:21:52;17.70;99.90
18729;DHT22;9493;51.884;5.188;2022-08-11T05:24:40;17.80;99.90
18729;DHT22;9493;51.884;5.188;2022-08-11T05:27:32;17.70;99.90
18729;DHT22;9493;51.884;5.188;2022-08-11T05:30:19;17.80;99.90
18729;DHT22;9493;51.884;5.188;2022-08-11T05:33:12;17.90;99.90
18729;DHT22;9493;51.884;5.188;2022-08-11T05:36:04;17.90;99.90
18729;DHT22;9493;51.884;5.188;2022-08-11T05:38:35;17.90;99.90
18729;DHT22;9493;51.884;5.188;2022-08-11T05:41:22;18.00;99.90
18729;DHT22;9493;51.884;5.188;2022-08-11T05:44:09;18.10;99.90
18729;DHT22;9493;51.884;5.188;2022-08-11T05:46:55;18.20;99.90
18729;DHT22;9493;51.884;5.188;2022-08-11T05:49:40;18.10;99.90
18729;DHT22;9493;51.884;5.188;2022-08-11T05:52:27;18.10;99.90
18729;DHT22;9493;51.884;5.188;2022-08-11T05:55:13;18.20;99.90
18729;DHT22;9493;51.884;5.188;2022-08-11T05:58:05;18.30;99.90
18729;DHT22;9493;51.884;5.188;2022-08-11T06:00:42;18.40;99.90
18729;DHT22;9493;51.884;5.188;2022-08-11T06:03:10;18.50;99.90
18729;DHT22;9493;51.884;5.188;2022-08-11T06:05:39;18.60;99.90
18729;DHT22;9493;51.884;5.188;2022-08-11T06:08:07;18.70;99.90
18729;DHT22;9493;51.884;5.188;2022-08-11T06:10:36;18.80;99.90
18729;DHT22;9493;51.884;5.188;2022-08-11T06:13:05;18.90;99.90
18729;DHT22;9493;51.884;5.188;2022-08-11T06:15:33;19.00;99.90
18729;DHT22;9493;51.884;5.188;2022-08-11T06:18:11;19.10;99.90
18729;DHT22;9493;51.884;5.188;2022-08-11T06:20:45;19.20;99.90
18729;DHT22;9493;51.884;5.188;2022-08-11T06:23:13;19.20;99.90
18729;DHT22;9493;51.884;5.188;2022-08-11T06:25:43;19.30;99.90
18729;DHT22;9493;51.884;5.188;2022-08-11T06:28:11;19.40;99.90
18729;DHT22;9493;51.884;5.188;2022-08-11T06:30:41;19.50;99.90
18729;DHT22;9493;51.884;5.188;2022-08-11T06:33:11;19.60;99.90
18729;DHT22;9493;51.884;5.188;2022-08-11T06:35:47;19.60;99.90
18729;DHT22;9493;51.884;5.188;2022-08-11T06:38:27;19.80;99.90
18729;DHT22;9493;51.884;5.188;2022-08-11T06:41:06;19.80;99.90
18729;DHT22;9493;51.884;5.188;2022-08-11T06:44:06;19.90;99.90
18729;DHT22;9493;51.884;5.188;2022-08-11T06:46:36;20.10;99.90
18729;DHT22;9493;51.884;5.188;2022-08-11T06:49:06;20.20;99.90
18729;DHT22;9493;51.884;5.188;2022-08-11T06:51:54;20.30;99.90
18729;DHT22;9493;51.884;5.188;2022-08-11T06:54:21;20.40;99.90
18729;DHT22;9493;51.884;5.188;2022-08-11T06:56:48;20.50;99.90
18729;DHT22;9493;51.884;5.188;2022-08-11T06:59:34;20.70;99.90
18729;DHT22;9493;51.884;5.188;2022-08-11T07:02:23;20.80;99.90
18729;DHT22;9493;51.884;5.188;2022-08-11T07:04:58;21.00;99.90
18729;DHT22;9493;51.884;5.188;2022-08-11T07:07:53;21.00;99.90
18729;DHT22;9493;51.884;5.188;2022-08-11T07:10:53;21.20;99.90
18729;DHT22;9493;51.884;5.188;2022-08-11T07:13:44;21.20;99.90
18729;DHT22;9493;51.884;5.188;2022-08-11T07:16:30;21.40;99.90
18729;DHT22;9493;51.884;5.188;2022-08-11T07:19:01;21.60;99.90
18729;DHT22;9493;51.884;5.188;2022-08-11T07:21:48;21.80;99.90
18729;DHT22;9493;51.884;5.188;2022-08-11T07:24:37;22.00;99.90
18729;DHT22;9493;51.884;5.188;2022-08-11T07:27:25;22.20;99.90
18729;DHT22;9493;51.884;5.188;2022-08-11T07:30:12;22.40;99.90
18729;DHT22;9493;51.884;5.188;2022-08-11T07:32:44;22.60;99.90
18729;DHT22;9493;51.884;5.188;2022-08-11T07:35:14;22.80;99.90
18729;DHT22;9493;51.884;5.188;2022-08-11T07:37:56;22.90;99.90
18729;DHT22;9493;51.884;5.188;2022-08-11T07:40:23;23.10;99.90
18729;DHT22;9493;51.884;5.188;2022-08-11T07:42:51;23.20;99.90
18729;DHT22;9493;51.884;5.188;2022-08-11T07:45:19;23.40;99.90
18729;DHT22;9493;51.884;5.188;2022-08-11T07:48:06;23.50;99.90
18729;DHT22;9493;51.884;5.188;2022-08-11T07:50:52;23.80;99.90
18729;DHT22;9493;51.884;5.188;2022-08-11T07:53:39;23.90;99.90
18729;DHT22;9493;51.884;5.188;2022-08-11T07:56:06;24.20;99.90
18729;DHT22;9493;51.884;5.188;2022-08-11T07:58:47;24.30;99.90
18729;DHT22;9493;51.884;5.188;2022-08-11T08:01:33;24.40;99.90
18729;DHT22;9493;51.884;5.188;2022-08-11T08:04:17;24.70;99.90
18729;DHT22;9493;51.884;5.188;2022-08-11T08:07:04;25.00;99.90
18729;DHT22;9493;51.884;5.188;2022-08-11T08:09:50;25.40;99.90
18729;DHT22;9493;51.884;5.188;2022-08-11T08:12:36;25.60;99.90
18729;DHT22;9493;51.884;5.188;2022-08-11T08:15:21;25.70;99.90
18729;DHT22;9493;51.884;5.188;2022-08-11T08:18:07;25.90;99.90
18729;DHT22;9493;51.884;5.188;2022-08-11T08:20:39;26.10;99.90
18729;DHT22;9493;51.884;5.188;2022-08-11T08:23:08;26.30;99.90
18729;DHT22;9493;51.884;5.188;2022-08-11T08:25:39;26.50;99.90
18729;DHT22;9493;51.884;5.188;2022-08-11T08:28:09;26.80;99.90
18729;DHT22;9493;51.884;5.188;2022-08-11T08:30:37;27.00;99.90
18729;DHT22;9493;51.884;5.188;2022-08-11T08:33:13;27.30;99.90
18729;DHT22;9493;51.884;5.188;2022-08-11T08:35:41;27.40;99.90
18729;DHT22;9493;51.884;5.188;2022-08-11T08:38:10;27.50;99.90
18729;DHT22;9493;51.884;5.188;2022-08-11T08:40:41;27.70;99.90
18729;DHT22;9493;51.884;5.188;2022-08-11T08:43:11;27.90;99.90
18729;DHT22;9493;51.884;5.188;2022-08-11T08:45:41;28.10;99.90
18729;DHT22;9493;51.884;5.188;2022-08-11T08:48:11;28.20;99.90
18729;DHT22;9493;51.884;5.188;2022-08-11T08:50:49;28.60;99.90
18729;DHT22;9493;51.884;5.188;2022-08-11T08:53:39;28.60;99.90
18729;DHT22;9493;51.884;5.188;2022-08-11T08:56:09;28.50;99.90
18729;DHT22;9493;51.884;5.188;2022-08-11T08:58:38;28.50;99.90
18729;DHT22;9493;51.884;5.188;2022-08-11T09:01:09;28.70;99.90
18729;DHT22;9493;51.884;5.188;2022-08-11T09:03:36;29.20;99.90
18729;DHT22;9493;51.884;5.188;2022-08-11T09:06:04;29.40;99.90
18729;DHT22;9493;51.884;5.188;2022-08-11T09:08:31;29.80;99.90
18729;DHT22;9493;51.884;5.188;2022-08-11T09:11:00;30.00;99.90
18729;DHT22;9493;51.884;5.188;2022-08-11T09:13:47;29.90;99.90
18729;DHT22;9493;51.884;5.188;2022-08-11T09:16:15;30.20;99.90
18729;DHT22;9493;51.884;5.188;2022-08-11T09:18:42;30.30;99.90
18729;DHT22;9493;51.884;5.188;2022-08-11T09:21:10;30.60;99.90
18729;DHT22;9493;51.884;5.188;2022-08-11T09:23:39;30.50;99.90
18729;DHT22;9493;51.884;5.188;2022-08-11T09:26:24;30.80;99.60
18729;DHT22;9493;51.884;5.188;2022-08-11T09:29:10;31.00;99.40
18729;DHT22;9493;51.884;5.188;2022-08-11T09:31:37;31.00;99.20
18729;DHT22;9493;51.884;5.188;2022-08-11T09:34:05;31.30;99.00
18729;DHT22;9493;51.884;5.188;2022-08-11T09:36:33;31.60;98.60
18729;DHT22;9493;51.884;5.188;2022-08-11T09:39:18;31.90;97.90
18729;DHT22;9493;51.884;5.188;2022-08-11T09:42:15;31.90;97.10
18729;DHT22;9493;51.884;5.188;2022-08-11T09:44:45;32.00;96.70
18729;DHT22;9493;51.884;5.188;2022-08-11T09:47:20;32.10;95.70
18729;DHT22;9493;51.884;5.188;2022-08-11T09:49:50;32.20;95.40
18729;DHT22;9493;51.884;5.188;2022-08-11T09:52:18;31.90;94.80
18729;DHT22;9493;51.884;5.188;2022-08-11T09:54:47;32.10;94.40
18729;DHT22;9493;51.884;5.188;2022-08-11T09:57:17;32.10;94.00
18729;DHT22;9493;51.884;5.188;2022-08-11T10:00:05;31.90;93.60
18729;DHT22;9493;51.884;5.188;2022-08-11T10:02:32;32.40;93.40
18729;DHT22;9493;51.884;5.188;2022-08-11T10:05:01;32.30;93.00
18729;DHT22;9493;51.884;5.188;2022-08-11T10:07:44;32.40;92.60
18729;DHT22;9493;51.884;5.188;2022-08-11T10:10:15;32.80;92.30
18729;DHT22;9493;51.884;5.188;2022-08-11T10:12:47;33.10;92.00
18729;DHT22;9493;51.884;5.188;2022-08-11T10:15:18;32.90;91.60
18729;DHT22;9493;51.884;5.188;2022-08-11T10:18:05;33.00;91.10
18729;DHT22;9493;51.884;5.188;2022-08-11T10:20:51;32.90;90.70
18729;DHT22;9493;51.884;5.188;2022-08-11T10:23:20;32.90;88.70
18729;DHT22;9493;51.884;5.188;2022-08-11T10:26:06;32.70;88.40
18729;DHT22;9493;51.884;5.188;2022-08-11T10:28:51;32.20;88.00
18729;DHT22;9493;51.884;5.188;2022-08-11T10:31:21;32.90;87.80
18729;DHT22;9493;51.884;5.188;2022-08-11T10:34:07;32.90;87.40
18729;DHT22;9493;51.884;5.188;2022-08-11T10:36:36;32.70;87.30
18729;DHT22;9493;51.884;5.188;2022-08-11T10:39:09;32.70;87.10
18729;DHT22;9493;51.884;5.188;2022-08-11T10:41:37;33.10;86.90
18729;DHT22;9493;51.884;5.188;2022-08-11T10:44:22;33.00;86.00
18729;DHT22;9493;51.884;5.188;2022-08-11T10:46:51;32.70;85.60
18729;DHT22;9493;51.884;5.188;2022-08-11T10:49:36;33.00;85.10
18729;DHT22;9493;51.884;5.188;2022-08-11T10:52:03;33.00;84.50
18729;DHT22;9493;51.884;5.188;2022-08-11T10:54:48;33.40;84.10
18729;DHT22;9493;51.884;5.188;2022-08-11T10:57:32;33.10;83.00
18729;DHT22;9493;51.884;5.188;2022-08-11T11:00:17;33.30;82.80
18729;DHT22;9493;51.884;5.188;2022-08-11T11:02:46;33.20;82.50
18729;DHT22;9493;51.884;5.188;2022-08-11T11:05:18;33.30;82.10
18729;DHT22;9493;51.884;5.188;2022-08-11T11:07:53;32.90;81.60
18729;DHT22;9493;51.884;5.188;2022-08-11T11:10:21;33.40;81.20
18729;DHT22;9493;51.884;5.188;2022-08-11T11:12:53;33.40;81.20
18729;DHT22;9493;51.884;5.188;2022-08-11T11:15:41;32.80;80.90
18729;DHT22;9493;51.884;5.188;2022-08-11T11:18:31;33.10;80.90
18729;DHT22;9493;51.884;5.188;2022-08-11T11:21:05;33.50;80.80
18729;DHT22;9493;51.884;5.188;2022-08-11T11:23:37;33.40;80.80
18729;DHT22;9493;51.884;5.188;2022-08-11T11:26:23;33.50;80.30
18729;DHT22;9493;51.884;5.188;2022-08-11T11:29:18;33.20;80.10
18729;DHT22;9493;51.884;5.188;2022-08-11T11:32:10;33.50;79.60
18729;DHT22;9493;51.884;5.188;2022-08-11T11:35:17;33.20;79.50
18729;DHT22;9493;51.884;5.188;2022-08-11T11:37:52;33.60;79.10
18729;DHT22;9493;51.884;5.188;2022-08-11T11:40:21;33.70;78.90
18729;DHT22;9493;51.884;5.188;2022-08-11T11:42:50;33.90;78.90
18729;DHT22;9493;51.884;5.188;2022-08-11T11:45:18;33.40;79.10
18729;DHT22;9493;51.884;5.188;2022-08-11T11:47:47;33.80;79.30
18729;DHT22;9493;51.884;5.188;2022-08-11T11:50:22;33.40;79.30
18729;DHT22;9493;51.884;5.188;2022-08-11T11:52:50;33.40;79.30
18729;DHT22;9493;51.884;5.188;2022-08-11T11:55:19;32.90;79.20
18729;DHT22;9493;51.884;5.188;2022-08-11T11:57:46;33.30;79.30
18729;DHT22;9493;51.884;5.188;2022-08-11T12:00:32;33.00;78.90
18729;DHT22;9493;51.884;5.188;2022-08-11T12:03:17;33.40;78.60
18729;DHT22;9493;51.884;5.188;2022-08-11T12:05:47;33.60;78.00
18729;DHT22;9493;51.884;5.188;2022-08-11T12:08:15;33.50;77.90
18729;DHT22;9493;51.884;5.188;2022-08-11T12:10:44;34.10;77.60
18729;DHT22;9493;51.884;5.188;2022-08-11T12:13:13;34.30;77.30
18729;DHT22;9493;51.884;5.188;2022-08-11T12:15:59;33.80;77.00
18729;DHT22;9493;51.884;5.188;2022-08-11T12:18:30;33.90;76.70
18729;DHT22;9493;51.884;5.188;2022-08-11T12:20:59;34.00;76.70
18729;DHT22;9493;51.884;5.188;2022-08-11T12:23:27;34.10;76.50
18729;DHT22;9493;51.884;5.188;2022-08-11T12:26:13;34.00;76.30
18729;DHT22;9493;51.884;5.188;2022-08-11T12:28:58;34.20;76.10
18729;DHT22;9493;51.884;5.188;2022-08-11T12:31:27;34.60;75.10
18729;DHT22;9493;51.884;5.188;2022-08-11T12:34:00;34.60;74.80
18729;DHT22;9493;51.884;5.188;2022-08-11T12:36:29;34.60;74.30
18729;DHT22;9493;51.884;5.188;2022-08-11T12:38:59;33.80;74.20
18729;DHT22;9493;51.884;5.188;2022-08-11T12:41:26;33.70;74.20
18729;DHT22;9493;51.884;5.188;2022-08-11T12:44:11;34.20;73.90
18729;DHT22;9493;51.884;5.188;2022-08-11T12:46:57;34.80;74.10
18729;DHT22;9493;51.884;5.188;2022-08-11T12:49:27;34.90;74.20
18729;DHT22;9493;51.884;5.188;2022-08-11T12:52:20;34.30;74.00
18729;DHT22;9493;51.884;5.188;2022-08-11T12:54:52;34.10;73.70
18729;DHT22;9493;51.884;5.188;2022-08-11T12:57:26;34.20;72.40
18729;DHT22;9493;51.884;5.188;2022-08-11T13:00:08;34.50;72.20
18729;DHT22;9493;51.884;5.188;2022-08-11T13:02:54;34.60;72.10
18729;DHT22;9493;51.884;5.188;2022-08-11T13:05:40;34.20;72.30
18729;DHT22;9493;51.884;5.188;2022-08-11T13:08:09;34.50;72.60
18729;DHT22;9493;51.884;5.188;2022-08-11T13:10:36;34.60;73.20
18729;DHT22;9493;51.884;5.188;2022-08-11T13:13:21;34.50;73.30
18729;DHT22;9493;51.884;5.188;2022-08-11T13:15:49;33.90;73.10
18729;DHT22;9493;51.884;5.188;2022-08-11T13:18:18;34.00;71.90
18729;DHT22;9493;51.884;5.188;2022-08-11T13:20:48;34.60;71.20
18729;DHT22;9493;51.884;5.188;2022-08-11T13:23:16;34.70;71.10
18729;DHT22;9493;51.884;5.188;2022-08-11T13:25:43;34.80;70.90
18729;DHT22;9493;51.884;5.188;2022-08-11T13:28:10;34.50;70.50
18729;DHT22;9493;51.884;5.188;2022-08-11T13:30:38;33.90;70.60
18729;DHT22;9493;51.884;5.188;2022-08-11T13:33:24;34.10;70.50
18729;DHT22;9493;51.884;5.188;2022-08-11T13:35:53;34.60;70.40
18729;DHT22;9493;51.884;5.188;2022-08-11T13:38:23;34.40;70.30
18729;DHT22;9493;51.884;5.188;2022-08-11T13:40:51;34.60;69.80
18729;DHT22;9493;51.884;5.188;2022-08-11T13:43:20;34.60;69.90
18729;DHT22;9493;51.884;5.188;2022-08-11T13:45:47;34.80;69.70
18729;DHT22;9493;51.884;5.188;2022-08-11T13:48:16;34.60;69.40
18729;DHT22;9493;51.884;5.188;2022-08-11T13:50:44;34.50;69.30
18729;DHT22;9493;51.884;5.188;2022-08-11T13:53:38;34.70;69.10
18729;DHT22;9493;51.884;5.188;2022-08-11T13:56:05;34.50;69.30
18729;DHT22;9493;51.884;5.188;2022-08-11T13:58:33;34.80;69.10
18729;DHT22;9493;51.884;5.188;2022-08-11T14:01:00;34.60;69.00
18729;DHT22;9493;51.884;5.188;2022-08-11T14:03:27;34.40;69.10
18729;DHT22;9493;51.884;5.188;2022-08-11T14:05:57;34.20;68.90
18729;DHT22;9493;51.884;5.188;2022-08-11T14:08:28;34.10;68.70
18729;DHT22;9493;51.884;5.188;2022-08-11T14:11:01;34.20;68.20
18729;DHT22;9493;51.884;5.188;2022-08-11T14:13:49;34.20;68.00
18729;DHT22;9493;51.884;5.188;2022-08-11T14:16:23;34.70;67.70
18729;DHT22;9493;51.884;5.188;2022-08-11T14:18:54;34.60;67.70
18729;DHT22;9493;51.884;5.188;2022-08-11T14:21:23;34.90;67.10
18729;DHT22;9493;51.884;5.188;2022-08-11T14:24:08;34.50;66.50
18729;DHT22;9493;51.884;5.188;2022-08-11T14:26:39;34.90;65.50
18729;DHT22;9493;51.884;5.188;2022-08-11T14:29:11;34.70;65.00
18729;DHT22;9493;51.884;5.188;2022-08-11T14:31:43;34.80;65.10
18729;DHT22;9493;51.884;5.188;2022-08-11T14:34:11;35.00;65.30
18729;DHT22;9493;51.884;5.188;2022-08-11T14:36:41;34.90;65.40
18729;DHT22;9493;51.884;5.188;2022-08-11T14:39:10;35.00;65.90
18729;DHT22;9493;51.884;5.188;2022-08-11T14:41:40;34.70;66.50
18729;DHT22;9493;51.884;5.188;2022-08-11T14:44:26;34.50;66.90
18729;DHT22;9493;51.884;5.188;2022-08-11T14:47:13;34.60;67.10
18729;DHT22;9493;51.884;5.188;2022-08-11T14:49:41;34.70;67.30
18729;DHT22;9493;51.884;5.188;2022-08-11T14:52:10;34.60;67.30
18729;DHT22;9493;51.884;5.188;2022-08-11T14:54:41;34.50;67.30
18729;DHT22;9493;51.884;5.188;2022-08-11T14:57:28;34.80;67.10
18729;DHT22;9493;51.884;5.188;2022-08-11T14:59:59;34.70;66.80
18729;DHT22;9493;51.884;5.188;2022-08-11T15:02:26;34.80;66.50
18729;DHT22;9493;51.884;5.188;2022-08-11T15:05:12;35.00;66.30
18729;DHT22;9493;51.884;5.188;2022-08-11T15:07:39;35.10;66.30
18729;DHT22;9493;51.884;5.188;2022-08-11T15:10:08;34.90;66.10
18729;DHT22;9493;51.884;5.188;2022-08-11T15:12:38;34.70;65.80
18729;DHT22;9493;51.884;5.188;2022-08-11T15:15:08;34.60;66.00
18729;DHT22;9493;51.884;5.188;2022-08-11T15:17:54;34.90;65.90
18729;DHT22;9493;51.884;5.188;2022-08-11T15:20:23;34.70;65.70
18729;DHT22;9493;51.884;5.188;2022-08-11T15:23:08;34.60;65.80
18729;DHT22;9493;51.884;5.188;2022-08-11T15:25:56;34.70;65.90
18729;DHT22;9493;51.884;5.188;2022-08-11T15:28:26;35.10;65.90
18729;DHT22;9493;51.884;5.188;2022-08-11T15:31:11;34.90;65.90
18729;DHT22;9493;51.884;5.188;2022-08-11T15:34:03;34.80;66.10
18729;DHT22;9493;51.884;5.188;2022-08-11T15:36:49;34.60;66.50
18729;DHT22;9493;51.884;5.188;2022-08-11T15:39:40;34.30;66.80
18729;DHT22;9493;51.884;5.188;2022-08-11T15:42:33;34.90;67.10
18729;DHT22;9493;51.884;5.188;2022-08-11T15:45:21;35.10;67.20
18729;DHT22;9493;51.884;5.188;2022-08-11T15:48:34;35.40;67.10
18729;DHT22;9493;51.884;5.188;2022-08-11T15:51:15;35.00;66.80
18729;DHT22;9493;51.884;5.188;2022-08-11T15:53:51;34.80;66.70
18729;DHT22;9493;51.884;5.188;2022-08-11T15:56:18;34.80;66.30
18729;DHT22;9493;51.884;5.188;2022-08-11T15:58:48;35.00;65.90
18729;DHT22;9493;51.884;5.188;2022-08-11T16:01:37;34.90;65.50
18729;DHT22;9493;51.884;5.188;2022-08-11T16:04:26;35.10;65.30
18729;DHT22;9493;51.884;5.188;2022-08-11T16:06:57;34.80;65.40
18729;DHT22;9493;51.884;5.188;2022-08-11T16:09:32;34.40;65.10
18729;DHT22;9493;51.884;5.188;2022-08-11T16:12:03;34.30;65.10
18729;DHT22;9493;51.884;5.188;2022-08-11T16:14:41;34.20;65.90
18729;DHT22;9493;51.884;5.188;2022-08-11T16:17:32;34.10;66.40
18729;DHT22;9493;51.884;5.188;2022-08-11T16:20:02;34.00;66.50
18729;DHT22;9493;51.884;5.188;2022-08-11T16:22:32;34.40;66.50
18729;DHT22;9493;51.884;5.188;2022-08-11T16:25:21;34.40;66.60
18729;DHT22;9493;51.884;5.188;2022-08-11T16:27:55;34.10;69.00
18729;DHT22;9493;51.884;5.188;2022-08-11T16:30:24;33.50;68.70
18729;DHT22;9493;51.884;5.188;2022-08-11T16:32:55;33.50;68.40
18729;DHT22;9493;51.884;5.188;2022-08-11T16:35:24;33.70;68.40
18729;DHT22;9493;51.884;5.188;2022-08-11T16:38:10;33.90;68.10
18729;DHT22;9493;51.884;5.188;2022-08-11T16:40:57;34.10;67.20
18729;DHT22;9493;51.884;5.188;2022-08-11T16:43:27;34.10;66.80
18729;DHT22;9493;51.884;5.188;2022-08-11T16:46:15;33.30;66.40
18729;DHT22;9493;51.884;5.188;2022-08-11T16:49:01;33.30;66.20
18729;DHT22;9493;51.884;5.188;2022-08-11T16:51:30;33.10;66.30
18729;DHT22;9493;51.884;5.188;2022-08-11T16:53:57;33.30;66.20
18729;DHT22;9493;51.884;5.188;2022-08-11T16:56:28;33.50;66.30
18729;DHT22;9493;51.884;5.188;2022-08-11T16:59:00;33.60;66.30
18729;DHT22;9493;51.884;5.188;2022-08-11T17:01:40;33.00;66.40
18729;DHT22;9493;51.884;5.188;2022-08-11T17:04:18;33.30;66.60
18729;DHT22;9493;51.884;5.188;2022-08-11T17:07:05;33.40;66.60
18729;DHT22;9493;51.884;5.188;2022-08-11T17:09:51;33.40;66.40
18729;DHT22;9493;51.884;5.188;2022-08-11T17:12:38;33.30;66.50
18729;DHT22;9493;51.884;5.188;2022-08-11T17:15:24;33.20;66.70
18729;DHT22;9493;51.884;5.188;2022-08-11T17:18:13;33.10;67.10
18729;DHT22;9493;51.884;5.188;2022-08-11T17:21:03;33.00;67.20
18729;DHT22;9493;51.884;5.188;2022-08-11T17:23:30;32.80;67.20
18729;DHT22;9493;51.884;5.188;2022-08-11T17:26:27;32.70;67.40
18729;DHT22;9493;51.884;5.188;2022-08-11T17:29:18;32.80;67.80
18729;DHT22;9493;51.884;5.188;2022-08-11T17:31:48;32.70;67.80
18729;DHT22;9493;51.884;5.188;2022-08-11T17:34:33;32.50;67.80
18729;DHT22;9493;51.884;5.188;2022-08-11T17:37:20;32.30;67.90
18729;DHT22;9493;51.884;5.188;2022-08-11T17:39:49;32.00;68.30